createdAt,value
2016-03-14T00:00:50.714Z,4.13
2016-03-14T00:01:50.701Z,4.13
2016-03-14T00:02:50.720Z,4.12
2016-03-14T00:03:50.706Z,4.21
2016-03-14T00:04:50.694Z,4.21
2016-03-14T00:05:50.712Z,4.22
2016-03-14T00:06:50.683Z,4.21
2016-03-14T00:07:50.702Z,4.25
2016-03-14T00:08:50.689Z,4.27
2016-03-14T00:09:50.692Z,4.22
2016-03-14T00:10:50.694Z,4.21
2016-03-14T00:11:50.697Z,4.18
2016-03-14T00:12:50.684Z,4.13
2016-03-14T00:13:50.686Z,4.12
2016-03-14T00:14:50.689Z,4.04
2016-03-14T00:15:50.692Z,4.06
2016-03-14T00:16:50.679Z,4.09
2016-03-14T00:17:50.683Z,4.04
2016-03-14T00:18:50.669Z,4.21
2016-03-14T00:19:50.672Z,4.16
2016-03-14T00:20:50.690Z,4.12
2016-03-14T00:21:50.677Z,4.03
2016-03-14T00:22:50.679Z,4.07
2016-03-14T00:23:50.666Z,4.06
2016-03-14T00:24:50.669Z,4.12
2016-03-14T00:25:50.656Z,4.1
2016-03-14T00:26:50.674Z,4.09
2016-03-14T00:27:50.662Z,4.1
2016-03-14T00:28:50.665Z,4.1
2016-03-14T00:29:50.667Z,4.04
2016-03-14T00:30:50.654Z,4.07
2016-03-14T00:31:50.657Z,4.02
2016-03-14T00:32:50.659Z,4.04
2016-03-14T00:33:50.647Z,4.03
2016-03-14T00:34:50.665Z,4.1
2016-03-14T00:35:50.652Z,4.1
2016-03-14T00:36:50.656Z,4.07
2016-03-14T00:37:50.642Z,4.16
2016-03-14T00:38:50.645Z,4.12
2016-03-14T00:39:50.772Z,4.12
2016-03-14T00:40:50.650Z,4.03
2016-03-14T00:41:50.652Z,4.02
2016-03-14T00:42:50.655Z,3.96
2016-03-14T00:43:50.642Z,4.03
2016-03-14T00:44:50.645Z,3.92
2016-03-14T00:45:50.647Z,4.03
2016-03-14T00:46:50.650Z,3.94
2016-03-14T00:47:50.638Z,3.96
2016-03-14T00:48:50.624Z,4.04
2016-03-14T00:49:50.627Z,4.06
2016-03-14T00:50:50.630Z,4.03
2016-03-14T00:51:50.632Z,4.06
2016-03-14T00:52:50.619Z,3.99
2016-03-14T00:53:50.622Z,4.02
2016-03-14T00:54:50.656Z,4
2016-03-14T00:55:50.627Z,3.95
2016-03-14T00:56:50.615Z,4.03
2016-03-14T00:57:50.618Z,4.03
2016-03-14T00:58:50.489Z,4.06
2016-03-14T00:59:50.467Z,3.95
2016-03-14T01:00:50.627Z,3.99
2016-03-14T01:01:50.622Z,3.92
2016-03-14T01:02:50.625Z,4.06
2016-03-14T01:03:50.612Z,3.91
2016-03-14T01:04:50.614Z,3.89
2016-03-14T01:05:50.602Z,3.81
2016-03-14T01:06:50.636Z,3.78
2016-03-14T01:07:50.622Z,3.92
2016-03-14T01:08:50.595Z,3.86
2016-03-14T01:09:50.847Z,3.74
2016-03-14T01:10:50.600Z,3.81
2016-03-14T01:11:50.602Z,3.89
2016-03-14T01:12:50.589Z,3.78
2016-03-14T01:13:50.592Z,3.89
2016-03-14T01:14:50.610Z,3.84
2016-03-14T01:15:50.597Z,3.77
2016-03-14T01:16:50.599Z,3.81
2016-03-14T01:17:50.587Z,3.85
2016-03-14T01:18:50.606Z,3.71
2016-03-14T01:19:50.593Z,3.86
2016-03-14T01:20:50.595Z,3.84
2016-03-14T01:21:50.582Z,3.92
2016-03-14T01:22:50.585Z,3.68
2016-03-14T01:23:50.587Z,3.76
2016-03-14T01:24:50.621Z,3.82
2016-03-14T01:25:50.593Z,3.78
2016-03-14T01:26:50.611Z,3.76
2016-03-14T01:27:50.567Z,3.81
2016-03-14T01:28:50.445Z,3.67
2016-03-14T01:29:50.573Z,3.77
2016-03-14T01:30:50.592Z,3.76
2016-03-14T01:31:50.562Z,3.71
2016-03-14T01:32:50.565Z,3.78
2016-03-14T01:33:50.567Z,3.68
2016-03-14T01:34:50.570Z,3.7
2016-03-14T01:35:50.542Z,3.78
2016-03-14T01:36:50.560Z,3.78
2016-03-14T01:37:50.547Z,3.91
2016-03-14T01:38:50.566Z,3.78
2016-03-14T01:39:50.428Z,3.74
2016-03-14T01:40:50.555Z,3.78
2016-03-14T01:41:50.558Z,3.74
2016-03-14T01:42:50.530Z,3.78
2016-03-14T01:43:50.579Z,3.76
2016-03-14T01:44:50.535Z,3.64
2016-03-14T01:45:50.569Z,3.7
2016-03-14T01:46:50.540Z,3.66
2016-03-14T01:47:50.558Z,3.68
2016-03-14T01:48:50.546Z,3.68
2016-03-14T01:49:50.548Z,3.61
2016-03-14T01:50:50.551Z,3.67
2016-03-14T01:51:50.554Z,3.59
2016-03-14T01:52:50.540Z,3.67
2016-03-14T01:53:50.543Z,3.61
2016-03-14T01:54:50.576Z,3.63
2016-03-14T01:55:50.518Z,3.77
2016-03-14T01:56:50.536Z,3.76
2016-03-14T01:57:50.523Z,3.76
2016-03-14T01:58:50.526Z,3.76
2016-03-14T01:59:50.528Z,3.76
2016-03-14T02:00:50.515Z,3.77
2016-03-14T02:01:50.534Z,3.66
2016-03-14T02:02:50.520Z,3.74
2016-03-14T02:03:50.539Z,3.64
2016-03-14T02:04:50.511Z,3.77
2016-03-14T02:05:50.529Z,3.74
2016-03-14T02:06:50.500Z,3.63
2016-03-14T02:07:50.519Z,3.61
2016-03-14T02:08:50.490Z,3.67
2016-03-14T02:09:50.508Z,3.63
2016-03-14T02:10:50.495Z,3.74
2016-03-14T02:11:50.514Z,3.71
2016-03-14T02:12:50.516Z,3.68
2016-03-14T02:13:50.519Z,3.76
2016-03-14T02:14:50.506Z,3.77
2016-03-14T02:15:50.508Z,3.7
2016-03-14T02:16:50.511Z,3.64
2016-03-14T02:17:50.514Z,3.67
2016-03-14T02:18:50.485Z,3.67
2016-03-14T02:19:50.488Z,3.59
2016-03-14T02:20:50.491Z,3.64
2016-03-14T02:21:50.493Z,3.64
2016-03-14T02:22:50.481Z,3.67
2016-03-14T02:23:50.483Z,3.67
2016-03-14T02:24:50.471Z,3.63
2016-03-14T02:25:50.489Z,3.61
2016-03-14T02:26:50.476Z,3.73
2016-03-14T02:27:50.479Z,3.63
2016-03-14T02:28:50.481Z,3.61
2016-03-14T02:29:50.468Z,3.68
2016-03-14T02:30:50.487Z,3.7
2016-03-14T02:31:50.473Z,3.66
2016-03-14T02:32:50.476Z,3.68
2016-03-14T02:33:50.463Z,3.63
2016-03-14T02:34:50.482Z,3.66
2016-03-14T02:35:50.469Z,3.63
2016-03-14T02:36:50.472Z,3.61
2016-03-14T02:37:50.475Z,3.59
2016-03-14T02:38:50.477Z,3.58
2016-03-14T02:39:50.480Z,3.66
2016-03-14T02:40:50.467Z,3.64
2016-03-14T02:41:50.469Z,3.58
2016-03-14T02:42:50.455Z,3.58
2016-03-14T02:43:50.459Z,3.66
2016-03-14T02:44:50.446Z,3.67
2016-03-14T02:45:50.449Z,3.68
2016-03-14T02:46:50.452Z,3.66
2016-03-14T02:47:50.438Z,3.63
2016-03-14T02:48:50.433Z,3.66
2016-03-14T02:49:50.424Z,3.64
2016-03-14T02:50:50.444Z,3.66
2016-03-14T02:51:50.403Z,3.63
2016-03-14T02:52:50.379Z,3.63
2016-03-14T02:53:50.357Z,3.64
2016-03-14T02:54:50.372Z,3.64
2016-03-14T02:55:50.353Z,3.66
2016-03-14T02:56:50.352Z,3.64
2016-03-14T02:57:50.334Z,3.61
2016-03-14T02:58:50.365Z,3.53
2016-03-14T02:59:50.381Z,3.53
2016-03-14T03:00:50.336Z,3.52
2016-03-14T03:01:50.337Z,3.46
2016-03-14T03:02:50.323Z,3.53
2016-03-14T03:03:50.340Z,3.56
2016-03-14T03:04:50.327Z,3.58
2016-03-14T03:05:50.328Z,3.53
2016-03-14T03:06:50.314Z,3.63
2016-03-14T03:07:50.317Z,3.63
2016-03-14T03:08:50.303Z,3.64
2016-03-14T03:09:50.306Z,3.58
2016-03-14T03:10:50.308Z,3.64
2016-03-14T03:11:50.311Z,3.59
2016-03-14T03:12:50.298Z,3.66
2016-03-14T03:13:50.317Z,3.59
2016-03-14T03:14:50.304Z,3.61
2016-03-14T03:15:50.322Z,3.59
2016-03-14T03:16:50.293Z,3.55
2016-03-14T03:17:50.297Z,3.53
2016-03-14T03:18:50.299Z,3.58
2016-03-14T03:19:50.302Z,3.64
2016-03-14T03:20:50.289Z,3.58
2016-03-14T03:21:50.323Z,3.59
2016-03-14T03:22:50.278Z,3.55
2016-03-14T03:23:50.297Z,3.59
2016-03-14T03:24:50.284Z,3.53
2016-03-14T03:25:50.287Z,3.58
2016-03-14T03:26:50.273Z,3.58
2016-03-14T03:27:50.276Z,3.61
2016-03-14T03:28:50.278Z,3.68
2016-03-14T03:29:50.281Z,3.68
2016-03-14T03:30:50.284Z,3.61
2016-03-14T03:31:50.272Z,3.74
2016-03-14T03:32:50.275Z,3.73
2016-03-14T03:33:50.277Z,3.82
2016-03-14T03:34:50.264Z,3.76
2016-03-14T03:35:50.283Z,3.76
2016-03-14T03:36:50.270Z,3.78
2016-03-14T03:37:50.272Z,3.78
2016-03-14T03:38:50.259Z,3.76
2016-03-14T03:39:50.261Z,3.76
2016-03-14T03:40:50.264Z,3.81
2016-03-14T03:41:50.252Z,3.66
2016-03-14T03:42:50.255Z,3.73
2016-03-14T03:43:50.257Z,3.77
2016-03-14T03:44:50.260Z,3.77
2016-03-14T03:45:50.262Z,3.74
2016-03-14T03:46:50.249Z,3.64
2016-03-14T03:47:50.236Z,3.67
2016-03-14T03:48:50.240Z,3.66
2016-03-14T03:49:50.242Z,3.68
2016-03-14T03:50:50.245Z,3.66
2016-03-14T03:51:50.231Z,3.7
2016-03-14T03:52:50.235Z,3.64
2016-03-14T03:53:50.237Z,3.7
2016-03-14T03:54:50.240Z,3.71
2016-03-14T03:55:50.226Z,3.7
2016-03-14T03:56:50.214Z,3.67
2016-03-14T03:57:50.231Z,3.67
2016-03-14T03:58:50.250Z,3.64
2016-03-14T03:59:50.222Z,3.64
2016-03-14T04:00:50.240Z,3.64
2016-03-14T04:01:50.211Z,3.68
2016-03-14T04:02:50.230Z,3.61
2016-03-14T04:03:50.216Z,3.58
2016-03-14T04:04:50.219Z,3.63
2016-03-14T04:05:50.206Z,3.64
2016-03-14T04:06:50.209Z,3.63
2016-03-14T04:07:50.274Z,3.67
2016-03-14T04:08:50.214Z,3.77
2016-03-14T04:09:50.217Z,3.73
2016-03-14T04:10:50.220Z,3.71
2016-03-14T04:11:50.208Z,3.71
2016-03-14T04:12:50.194Z,3.73
2016-03-14T04:13:50.196Z,3.77
2016-03-14T04:14:50.199Z,3.64
2016-03-14T04:15:50.202Z,3.64
2016-03-14T04:16:50.205Z,3.67
2016-03-14T04:17:50.193Z,3.67
2016-03-14T04:18:50.211Z,3.66
2016-03-14T04:19:50.181Z,3.7
2016-03-14T04:20:50.200Z,3.58
2016-03-14T04:21:50.171Z,3.56
2016-03-14T04:22:50.190Z,3.55
2016-03-14T04:23:50.177Z,3.52
2016-03-14T04:24:50.196Z,3.56
2016-03-14T04:25:50.167Z,3.43
2016-03-14T04:26:50.170Z,3.49
2016-03-14T04:27:50.173Z,3.49
2016-03-14T04:28:50.176Z,3.45
2016-03-14T04:29:50.162Z,3.48
2016-03-14T04:30:50.181Z,3.4
2016-03-14T04:31:50.167Z,3.36
2016-03-14T04:32:50.154Z,3.36
2016-03-14T04:33:50.173Z,3.49
2016-03-14T04:34:50.160Z,3.53
2016-03-14T04:35:50.162Z,3.48
2016-03-14T04:36:50.165Z,3.49
2016-03-14T04:37:50.152Z,3.53
2016-03-14T04:38:50.170Z,3.53
2016-03-14T04:39:50.173Z,3.45
2016-03-14T04:40:50.176Z,3.46
2016-03-14T04:41:50.163Z,3.49
2016-03-14T04:42:50.135Z,3.55
2016-03-14T04:43:50.152Z,3.43
2016-03-14T04:44:50.141Z,3.49
2016-03-14T04:45:50.158Z,3.43
2016-03-14T04:46:50.146Z,3.41
2016-03-14T04:47:50.148Z,3.52
2016-03-14T04:48:50.135Z,3.5
2016-03-14T04:49:50.137Z,3.43
2016-03-14T04:50:50.140Z,3.53
2016-03-14T04:51:50.127Z,3.56
2016-03-14T04:52:50.146Z,3.49
2016-03-14T04:53:50.132Z,3.46
2016-03-14T04:54:50.135Z,3.46
2016-03-14T04:55:50.123Z,3.43
2016-03-14T04:56:50.125Z,3.37
2016-03-14T04:57:50.112Z,3.33
2016-03-14T04:58:50.131Z,3.37
2016-03-14T04:59:50.133Z,3.34
2016-03-14T05:00:50.120Z,3.41
2016-03-14T05:01:50.139Z,3.45
2016-03-14T05:02:50.110Z,3.46
2016-03-14T05:03:50.129Z,3.41
2016-03-14T05:04:50.115Z,3.37
2016-03-14T05:05:50.118Z,3.36
2016-03-14T05:06:50.105Z,3.37
2016-03-14T05:07:50.108Z,3.46
2016-03-14T05:08:50.111Z,3.53
2016-03-14T05:09:50.114Z,3.53
2016-03-14T05:10:50.116Z,3.48
2016-03-14T05:11:50.119Z,3.48
2016-03-14T05:12:50.105Z,3.49
2016-03-14T05:13:50.108Z,3.45
2016-03-14T05:14:50.127Z,3.49
2016-03-14T05:15:50.083Z,3.5
2016-03-14T05:16:50.101Z,3.5
2016-03-14T05:17:50.088Z,3.48
2016-03-14T05:18:50.106Z,3.56
2016-03-14T05:19:50.078Z,3.67
2016-03-14T05:20:50.080Z,3.52
2016-03-14T05:21:50.068Z,3.63
2016-03-14T05:22:50.085Z,3.61
2016-03-14T05:23:50.073Z,3.63
2016-03-14T05:24:50.075Z,3.67
2016-03-14T05:25:50.078Z,3.68
2016-03-14T05:26:50.081Z,3.66
2016-03-14T05:27:50.084Z,3.64
2016-03-14T05:28:50.086Z,3.71
2016-03-14T05:29:50.089Z,3.67
2016-03-14T05:30:50.059Z,3.67
2016-03-14T05:31:50.062Z,3.74
2016-03-14T05:32:50.065Z,3.71
2016-03-14T05:33:50.068Z,3.78
2016-03-14T05:34:50.070Z,3.73
2016-03-14T05:35:50.058Z,3.78
2016-03-14T05:36:50.061Z,3.89
2016-03-14T05:37:50.064Z,3.85
2016-03-14T05:38:50.051Z,3.77
2016-03-14T05:39:50.053Z,3.81
2016-03-14T05:40:50.056Z,3.81
2016-03-14T05:41:50.058Z,3.71
2016-03-14T05:42:50.046Z,3.74
2016-03-14T05:43:50.033Z,3.76
2016-03-14T05:44:50.036Z,3.82
2016-03-14T05:45:50.022Z,3.88
2016-03-14T05:46:50.025Z,3.71
2016-03-14T05:47:50.043Z,3.81
2016-03-14T05:48:50.030Z,3.81
2016-03-14T05:49:50.033Z,3.73
2016-03-14T05:50:50.035Z,3.86
2016-03-14T05:51:50.038Z,3.85
2016-03-14T05:52:50.010Z,3.82
2016-03-14T05:53:50.044Z,3.86
2016-03-14T05:54:50.031Z,3.89
2016-03-14T05:55:50.174Z,3.85
2016-03-14T05:56:50.037Z,3.84
2016-03-14T05:57:50.023Z,3.84
2016-03-14T05:58:50.026Z,3.78
2016-03-14T05:59:50.012Z,3.91
2016-03-14T06:00:50.031Z,3.78
2016-03-14T06:01:50.018Z,3.88
2016-03-14T06:02:50.021Z,3.73
2016-03-14T06:03:50.008Z,3.84
2016-03-14T06:04:50.011Z,3.82
2016-03-14T06:05:49.997Z,3.88
2016-03-14T06:06:50.006Z,3.78
2016-03-14T06:07:50.009Z,3.77
2016-03-14T06:08:49.995Z,3.77
2016-03-14T06:09:49.998Z,3.81
2016-03-14T06:10:50.016Z,3.77
2016-03-14T06:11:49.988Z,3.76
2016-03-14T06:12:49.990Z,3.78
2016-03-14T06:13:49.994Z,3.76
2016-03-14T06:14:49.996Z,3.76
2016-03-14T06:15:49.983Z,3.74
2016-03-14T06:16:49.985Z,3.68
2016-03-14T06:17:49.988Z,3.64
2016-03-14T06:18:49.990Z,3.64
2016-03-14T06:19:49.994Z,3.64
2016-03-14T06:20:49.981Z,3.67
2016-03-14T06:21:49.984Z,3.66
2016-03-14T06:22:49.986Z,3.66
2016-03-14T06:23:49.989Z,3.58
2016-03-14T06:24:49.976Z,3.63
2016-03-14T06:25:50.073Z,3.63
2016-03-14T06:26:49.965Z,3.67
2016-03-14T06:27:49.968Z,3.64
2016-03-14T06:28:49.970Z,3.68
2016-03-14T06:29:49.973Z,3.73
2016-03-14T06:30:49.961Z,3.76
2016-03-14T06:31:49.979Z,3.73
2016-03-14T06:32:49.982Z,3.76
2016-03-14T06:33:49.984Z,3.82
2016-03-14T06:34:49.987Z,3.89
2016-03-14T06:35:49.974Z,3.85
2016-03-14T06:36:49.977Z,3.81
2016-03-14T06:37:49.964Z,4
2016-03-14T06:38:49.967Z,3.94
2016-03-14T06:39:49.953Z,4
2016-03-14T06:40:50.003Z,4
2016-03-14T06:41:49.943Z,4.06
2016-03-14T06:42:49.947Z,4.04
2016-03-14T06:43:49.949Z,4.04
2016-03-14T06:44:49.952Z,4.07
2016-03-14T06:45:49.938Z,4.13
2016-03-14T06:46:49.941Z,4.16
2016-03-14T06:47:49.943Z,4.18
2016-03-14T06:48:49.946Z,4.14
2016-03-14T06:49:49.949Z,4.2
2016-03-14T06:50:49.937Z,4.24
2016-03-14T06:51:49.939Z,4.22
2016-03-14T06:52:49.942Z,4.22
2016-03-14T06:53:49.944Z,4.28
2016-03-14T06:54:49.947Z,4.27
2016-03-14T06:55:50.059Z,4.43
2016-03-14T06:56:49.921Z,4.48
2016-03-14T06:57:49.923Z,4.48
2016-03-14T06:58:49.926Z,4.48
2016-03-14T06:59:49.929Z,4.46
2016-03-14T07:00:49.917Z,4.56
2016-03-14T07:01:49.935Z,4.56
2016-03-14T07:02:49.937Z,4.58
2016-03-14T07:03:49.940Z,4.56
2016-03-14T07:04:49.942Z,4.68
2016-03-14T07:05:49.945Z,4.67
2016-03-14T07:06:49.933Z,4.75
2016-03-14T07:07:49.920Z,4.75
2016-03-14T07:08:49.923Z,4.74
2016-03-14T07:09:49.941Z,4.76
2016-03-14T07:10:49.928Z,4.68
2016-03-14T07:11:49.930Z,4.83
2016-03-14T07:12:49.917Z,4.71
2016-03-14T07:13:49.919Z,4.84
2016-03-14T07:14:49.923Z,4.71
2016-03-14T07:15:49.941Z,4.67
2016-03-14T07:16:49.913Z,4.68
2016-03-14T07:17:49.915Z,4.68
2016-03-14T07:18:49.903Z,4.67
2016-03-14T07:19:49.936Z,4.58
2016-03-14T07:20:49.924Z,4.63
2016-03-14T07:21:49.926Z,4.63
2016-03-14T07:22:49.913Z,4.61
2016-03-14T07:23:49.915Z,4.57
2016-03-14T07:24:49.904Z,4.45
2016-03-14T07:25:49.906Z,4.45
2016-03-14T07:26:49.924Z,4.49
2016-03-14T07:27:49.911Z,4.46
2016-03-14T07:28:49.898Z,4.43
2016-03-14T07:29:49.900Z,4.36
2016-03-14T07:30:49.903Z,4.52
2016-03-14T07:31:49.906Z,4.38
2016-03-14T07:32:49.909Z,4.4
2016-03-14T07:33:49.896Z,4.5
2016-03-14T07:34:49.898Z,4.56
2016-03-14T07:35:49.917Z,4.53
2016-03-14T07:36:49.904Z,4.63
2016-03-14T07:37:49.907Z,4.66
2016-03-14T07:38:49.894Z,4.66
2016-03-14T07:39:49.911Z,4.66
2016-03-14T07:40:49.899Z,4.79
2016-03-14T07:41:49.917Z,4.64
2016-03-14T07:42:49.905Z,4.79
2016-03-14T07:43:49.908Z,4.84
2016-03-14T07:44:49.894Z,4.82
2016-03-14T07:45:49.881Z,4.75
2016-03-14T07:46:49.899Z,4.82
2016-03-14T07:47:49.902Z,4.74
2016-03-14T07:48:49.889Z,4.64
2016-03-14T07:49:49.892Z,4.78
2016-03-14T07:50:49.894Z,4.76
2016-03-14T07:51:49.897Z,4.76
2016-03-14T07:52:49.900Z,4.68
2016-03-14T07:53:49.888Z,4.7
2016-03-14T07:54:49.890Z,4.7
2016-03-14T07:55:49.893Z,4.71
2016-03-14T07:56:49.879Z,4.74
2016-03-14T07:57:49.898Z,4.7
2016-03-14T07:58:49.884Z,4.71
2016-03-14T07:59:49.888Z,4.78
2016-03-14T08:00:49.890Z,4.79
2016-03-14T08:01:49.878Z,4.79
2016-03-14T08:02:49.880Z,4.79
2016-03-14T08:03:49.883Z,4.78
2016-03-14T08:04:49.886Z,4.9
2016-03-14T08:05:49.889Z,4.97
2016-03-14T08:06:49.888Z,4.92
2016-03-14T08:07:49.891Z,4.92
2016-03-14T08:08:49.893Z,4.97
2016-03-14T08:09:49.897Z,5.01
2016-03-14T08:10:49.899Z,4.97
2016-03-14T08:11:49.886Z,5.01
2016-03-14T08:12:49.888Z,5.02
2016-03-14T08:13:49.875Z,5.08
2016-03-14T08:14:49.877Z,5.05
2016-03-14T08:15:49.880Z,4.97
2016-03-14T08:16:49.883Z,5.07
2016-03-14T08:17:49.871Z,5.1
2016-03-14T08:18:49.888Z,5.15
2016-03-14T08:19:49.891Z,5.2
2016-03-14T08:20:49.878Z,5.13
2016-03-14T08:21:49.896Z,5.04
2016-03-14T08:22:49.884Z,5
2016-03-14T08:23:49.871Z,5.01
2016-03-14T08:24:49.873Z,4.86
2016-03-14T08:25:49.876Z,4.94
2016-03-14T08:26:49.895Z,4.86
2016-03-14T08:27:49.866Z,4.87
2016-03-14T08:28:49.884Z,4.97
2016-03-14T08:29:49.871Z,4.98
2016-03-14T08:30:49.873Z,4.87
2016-03-14T08:31:49.876Z,4.78
2016-03-14T08:32:49.864Z,4.83
2016-03-14T08:33:49.882Z,4.78
2016-03-14T08:34:49.869Z,4.95
2016-03-14T08:35:49.872Z,4.92
2016-03-14T08:36:49.890Z,4.9
2016-03-14T08:37:49.877Z,4.87
2016-03-14T08:38:49.708Z,4.95
2016-03-14T08:39:49.867Z,4.92
2016-03-14T08:40:49.870Z,4.9
2016-03-14T08:41:49.873Z,4.94
2016-03-14T08:42:49.891Z,4.92
2016-03-14T08:43:49.878Z,4.79
2016-03-14T08:44:49.866Z,4.82
2016-03-14T08:45:49.868Z,4.78
2016-03-14T08:46:49.871Z,4.75
2016-03-14T08:47:49.873Z,4.78
2016-03-14T08:48:49.876Z,4.74
2016-03-14T08:49:49.925Z,4.79
2016-03-14T08:50:49.866Z,4.82
2016-03-14T08:51:49.868Z,4.82
2016-03-14T08:52:49.871Z,4.9
2016-03-14T08:53:49.874Z,4.94
2016-03-14T08:54:49.860Z,4.92
2016-03-14T08:55:49.863Z,4.94
2016-03-14T08:56:49.866Z,4.94
2016-03-14T08:57:49.868Z,5.02
2016-03-14T08:58:49.871Z,5
2016-03-14T08:59:49.859Z,4.97
2016-03-14T09:00:49.862Z,4.98
2016-03-14T09:01:49.864Z,5.01
2016-03-14T09:02:49.867Z,5.12
2016-03-14T09:03:49.869Z,5.1
2016-03-14T09:04:49.872Z,5.23
2016-03-14T09:05:49.859Z,5.2
2016-03-14T09:06:49.878Z,5.33
2016-03-14T09:07:49.864Z,5.28
2016-03-14T09:08:49.867Z,5.29
2016-03-14T09:09:49.869Z,5.29
2016-03-14T09:10:49.888Z,5.28
2016-03-14T09:11:49.859Z,5.22
2016-03-14T09:12:49.861Z,5.19
2016-03-14T09:13:49.864Z,5.2
2016-03-14T09:14:49.867Z,5.1
2016-03-14T09:15:49.870Z,5.07
2016-03-14T09:16:49.857Z,5.19
2016-03-14T09:17:49.875Z,5.18
2016-03-14T09:18:49.846Z,5.2
2016-03-14T09:19:49.850Z,5.2
2016-03-14T09:20:49.852Z,5.28
2016-03-14T09:21:49.855Z,5.36
2016-03-14T09:22:49.857Z,5.38
2016-03-14T09:23:49.876Z,5.41
2016-03-14T09:24:49.862Z,5.41
2016-03-14T09:25:49.851Z,5.52
2016-03-14T09:26:49.868Z,5.55
2016-03-14T09:27:49.856Z,5.49
2016-03-14T09:28:49.873Z,5.55
2016-03-14T09:29:49.845Z,5.46
2016-03-14T09:30:49.848Z,5.52
2016-03-14T09:31:49.850Z,5.55
2016-03-14T09:32:49.870Z,5.56
2016-03-14T09:33:49.856Z,5.69
2016-03-14T09:34:49.890Z,5.61
2016-03-14T09:35:49.861Z,5.72
2016-03-14T09:36:49.864Z,5.65
2016-03-14T09:37:49.867Z,5.59
2016-03-14T09:38:49.854Z,5.47
2016-03-14T09:39:49.856Z,5.54
2016-03-14T09:40:49.859Z,5.56
2016-03-14T09:41:49.862Z,5.65
2016-03-14T09:42:49.850Z,5.62
2016-03-14T09:43:49.852Z,5.65
2016-03-14T09:44:49.855Z,5.67
2016-03-14T09:45:49.858Z,5.62
2016-03-14T09:46:49.891Z,5.67
2016-03-14T09:47:49.863Z,5.64
2016-03-14T09:48:49.865Z,5.51
2016-03-14T09:49:49.852Z,5.52
2016-03-14T09:50:49.855Z,5.47
2016-03-14T09:51:49.857Z,5.49
2016-03-14T09:52:49.845Z,5.52
2016-03-14T09:53:49.863Z,5.44
2016-03-14T09:54:49.850Z,5.52
2016-03-14T09:55:49.868Z,5.51
2016-03-14T09:56:49.855Z,5.62
2016-03-14T09:57:49.857Z,5.58
2016-03-14T09:58:49.876Z,5.64
2016-03-14T09:59:49.863Z,5.67
2016-03-14T10:00:49.866Z,5.76
2016-03-14T10:01:49.854Z,5.79
2016-03-14T10:02:49.856Z,5.69
2016-03-14T10:03:49.859Z,5.73
2016-03-14T10:04:49.877Z,5.67
2016-03-14T10:05:49.864Z,5.64
2016-03-14T10:06:49.887Z,5.58
2016-03-14T10:07:49.863Z,5.62
2016-03-14T10:08:49.867Z,5.67
2016-03-14T10:09:49.853Z,5.69
2016-03-14T10:10:49.856Z,5.67
2016-03-14T10:11:49.858Z,5.81
2016-03-14T10:12:49.861Z,5.74
2016-03-14T10:13:49.849Z,5.67
2016-03-14T10:14:49.867Z,5.72
2016-03-14T10:15:49.854Z,5.64
2016-03-14T10:16:49.857Z,5.74
2016-03-14T10:17:49.859Z,5.88
2016-03-14T10:18:49.877Z,5.92
2016-03-14T10:19:49.865Z,5.94
2016-03-14T10:20:49.851Z,6.01
2016-03-14T10:21:49.855Z,6.1
2016-03-14T10:22:49.857Z,6.13
2016-03-14T10:23:49.860Z,6.26
2016-03-14T10:24:49.878Z,6.26
2016-03-14T10:25:49.849Z,6.26
2016-03-14T10:26:49.852Z,6.16
2016-03-14T10:27:49.854Z,6.2
2016-03-14T10:28:49.874Z,6.26
2016-03-14T10:29:49.860Z,6.28
2016-03-14T10:30:49.848Z,6.26
2016-03-14T10:31:49.850Z,6.31
2016-03-14T10:32:49.853Z,6.22
2016-03-14T10:33:49.856Z,6.16
2016-03-14T10:34:49.859Z,6.12
2016-03-14T10:35:49.861Z,6.07
2016-03-14T10:36:49.863Z,6.01
2016-03-14T10:37:49.866Z,6.13
2016-03-14T10:38:49.853Z,5.98
2016-03-14T10:39:49.856Z,5.95
2016-03-14T10:40:49.858Z,5.98
2016-03-14T10:41:49.861Z,5.88
2016-03-14T10:42:49.864Z,5.99
2016-03-14T10:43:49.883Z,6.09
2016-03-14T10:44:49.713Z,6.12
2016-03-14T10:45:49.872Z,6.15
2016-03-14T10:46:49.922Z,6.17
2016-03-14T10:47:49.877Z,6.29
2016-03-14T10:48:49.708Z,6.26
2016-03-14T10:49:49.868Z,6.38
2016-03-14T10:50:49.870Z,6.46
2016-03-14T10:51:49.873Z,6.57
2016-03-14T10:52:49.859Z,6.67
2016-03-14T10:53:49.878Z,6.74
2016-03-14T10:54:49.865Z,6.75
2016-03-14T10:55:49.851Z,6.93
2016-03-14T10:56:49.855Z,7.05
2016-03-14T10:57:49.857Z,7.1
2016-03-14T10:58:49.876Z,7.14
2016-03-14T10:59:49.862Z,7.14
2016-03-14T11:00:49.881Z,7.01
2016-03-14T11:01:49.869Z,6.87
2016-03-14T11:02:49.871Z,6.74
2016-03-14T11:03:49.874Z,6.86
2016-03-14T11:04:49.862Z,6.75
2016-03-14T11:05:49.865Z,6.75
2016-03-14T11:06:49.882Z,6.78
2016-03-14T11:07:49.870Z,6.82
2016-03-14T11:08:49.873Z,6.71
2016-03-14T11:09:49.875Z,6.74
2016-03-14T11:10:49.862Z,6.8
2016-03-14T11:11:49.864Z,6.82
2016-03-14T11:12:49.867Z,6.74
2016-03-14T11:13:49.870Z,6.83
2016-03-14T11:14:49.873Z,6.74
2016-03-14T11:15:49.876Z,6.83
2016-03-14T11:16:49.878Z,7
2016-03-14T11:17:49.865Z,7.11
2016-03-14T11:18:49.883Z,7.31
2016-03-14T11:19:49.870Z,7.46
2016-03-14T11:20:49.873Z,7.43
2016-03-14T11:21:49.879Z,7.55
2016-03-14T11:22:49.866Z,7.44
2016-03-14T11:23:49.899Z,7.48
2016-03-14T11:24:49.871Z,7.56
2016-03-14T11:25:49.968Z,7.59
2016-03-14T11:26:49.908Z,7.7
2016-03-14T11:27:49.879Z,7.74
2016-03-14T11:28:49.897Z,7.69
2016-03-14T11:29:49.885Z,7.78
2016-03-14T11:30:49.887Z,7.84
2016-03-14T11:31:49.891Z,7.78
2016-03-14T11:32:49.877Z,7.8
2016-03-14T11:33:49.896Z,7.81
2016-03-14T11:34:49.868Z,7.83
2016-03-14T11:35:49.885Z,7.62
2016-03-14T11:36:49.904Z,7.56
2016-03-14T11:37:49.875Z,7.66
2016-03-14T11:38:49.909Z,7.69
2016-03-14T11:39:49.896Z,7.7
2016-03-14T11:40:49.883Z,7.67
2016-03-14T11:41:49.902Z,7.64
2016-03-14T11:42:49.889Z,7.61
2016-03-14T11:43:49.875Z,7.61
2016-03-14T11:44:49.894Z,7.62
2016-03-14T11:45:49.912Z,7.62
2016-03-14T11:46:49.900Z,7.7
2016-03-14T11:47:49.886Z,7.77
2016-03-14T11:48:49.905Z,7.66
2016-03-14T11:49:49.783Z,7.66
2016-03-14T11:50:49.911Z,7.62
2016-03-14T11:51:49.913Z,7.62
2016-03-14T11:53:08.884Z,7.61
2016-03-14T11:53:49.902Z,7.62
2016-03-14T11:54:49.898Z,7.64
2016-03-14T11:55:49.876Z,7.69
2016-03-14T11:56:49.900Z,7.72
2016-03-14T11:57:49.877Z,7.69
2016-03-14T11:58:49.845Z,7.62
2016-03-14T11:59:49.857Z,7.7
2016-03-14T12:00:49.841Z,7.87
2016-03-14T12:01:49.855Z,7.87
2016-03-14T12:02:49.839Z,7.96
2016-03-14T12:03:49.838Z,8.02
2016-03-14T12:04:49.682Z,8.02
2016-03-14T12:05:49.855Z,8.11
2016-03-14T12:06:49.873Z,8.14
2016-03-14T12:07:49.859Z,8.32
2016-03-14T12:08:49.845Z,8.31
2016-03-14T12:09:49.847Z,8.23
2016-03-14T12:10:49.834Z,8.17
2016-03-14T12:11:49.898Z,8.13
2016-03-14T12:12:49.839Z,8.09
2016-03-14T12:13:49.856Z,8.11
2016-03-14T12:14:49.843Z,8.21
2016-03-14T12:15:49.845Z,8.32
2016-03-14T12:16:49.864Z,8.36
2016-03-14T12:17:49.850Z,8.31
2016-03-14T12:18:49.852Z,8.23
2016-03-14T12:19:49.855Z,8.2
2016-03-14T12:20:49.857Z,8.18
2016-03-14T12:21:49.844Z,8.2
2016-03-14T12:22:49.862Z,8.11
2016-03-14T12:23:49.850Z,8.13
2016-03-14T12:24:49.852Z,8.18
2016-03-14T12:25:49.855Z,8.24
2016-03-14T12:26:49.889Z,8.36
2016-03-14T12:27:49.860Z,8.41
2016-03-14T12:28:49.862Z,8.52
2016-03-14T12:29:49.866Z,8.56
2016-03-14T12:30:49.869Z,8.69
2016-03-14T12:31:49.856Z,8.63
2016-03-14T12:32:49.718Z,8.49
2016-03-14T12:33:49.861Z,8.45
2016-03-14T12:34:49.864Z,8.34
2016-03-14T12:35:49.709Z,8.35
2016-03-14T12:36:49.870Z,8.35
2016-03-14T12:37:49.887Z,8.27
2016-03-14T12:38:49.875Z,8.34
2016-03-14T12:39:49.878Z,8.38
2016-03-14T12:40:49.896Z,8.44
2016-03-14T12:41:49.883Z,8.45
2016-03-14T12:42:49.870Z,8.31
2016-03-14T12:43:49.888Z,8.41
2016-03-14T12:44:49.875Z,8.45
2016-03-14T12:45:49.877Z,8.5
2016-03-14T12:46:49.880Z,8.54
2016-03-14T12:47:49.883Z,8.63
2016-03-14T12:48:49.885Z,8.68
2016-03-14T12:49:49.888Z,8.64
2016-03-14T12:50:49.891Z,8.69
2016-03-14T12:51:49.894Z,8.75
2016-03-14T12:52:49.896Z,8.71
2016-03-14T12:53:49.884Z,8.52
2016-03-14T12:54:49.902Z,8.52
2016-03-14T12:55:49.904Z,8.44
2016-03-14T12:56:49.892Z,8.39
2016-03-14T12:57:49.926Z,8.38
2016-03-14T12:58:49.897Z,8.35
2016-03-14T12:59:49.899Z,8.21
2016-03-14T13:00:49.918Z,8.18
2016-03-14T13:01:49.920Z,8.24
2016-03-14T13:02:49.907Z,8.18
2016-03-14T13:03:49.910Z,8.17
2016-03-14T13:04:49.897Z,8.14
2016-03-14T13:05:49.900Z,8.09
2016-03-14T13:06:49.918Z,8.16
2016-03-14T13:07:49.905Z,8.2
2016-03-14T13:08:49.909Z,8.17
2016-03-14T13:09:49.926Z,8.14
2016-03-14T13:10:49.929Z,8.17
2016-03-14T13:11:49.917Z,8.2
2016-03-14T13:12:49.919Z,8.14
2016-03-14T13:13:49.922Z,8.03
2016-03-14T13:14:49.924Z,8.03
2016-03-14T13:15:49.942Z,7.87
2016-03-14T13:16:49.930Z,7.85
2016-03-14T13:17:49.933Z,7.87
2016-03-14T13:18:49.950Z,7.85
2016-03-14T13:19:49.938Z,7.8
2016-03-14T13:20:49.924Z,7.83